Batterdale, United Kingdom
Current Conditions -  °F | °C
As of 3:20 PM on Monday 24 Nov 2014 (Local Time) from EGGW Reporting Station
Clear Clear  
Wind Chill:   Ceiling: Unl
Heat Index:   Visibility: 6mi
Dew Point:   Wind: 5mph
Humidity: 87%   Direction: 330°NNW
Pressure: 30.3"   Gusts: NA
Location:  51.76°N, 0.21°W
Report Text: EGGW 241520Z 33004KT 280V350 CAVOK 06/04 Q1026
Loading
Personal Weather Stations






























Interactive Weather Map New forecast layout! Learn more

10-Day Weather Forecast

Advertisements
Track Severe Weather on mobile